Time;durP1;ratioP1;P1;durP2;ratioP2;P2;SDS_P1;SDS_P2;PMS_P1;PMS_P2;Temp;Humidity;BMP_temperature;BMP_pressure;BME280_temperature;BME280_humidity;BME280_pressure;Samples;Min_cycle;Max_cycle;Signal;HPM_P1;HPM_P2
2023/12/02 00:02:40;;;;;;;28.15;12.32;;;;;;;;;;5015282;28;20048;-91
2023/12/02 00:05:20;;;;;;;30.70;12.93;;;;;;;;;;5009179;28;20029;-92
2023/12/02 00:11:22;;;;;;;33.70;13.68;;;;;;;;;;4942980;28;20098;-90
2023/12/02 00:14:08;;;;;;;;;;;;;;;;;;;;;
2023/12/02 00:16:36;;;;;;;32.47;12.83;;;;;;;;;;4938451;28;20041;-90
2023/12/02 00:19:04;;;;;;;30.10;12.90;;;;;;;;;;4958579;28;20039;-89
2023/12/02 00:21:32;;;;;;;30.00;13.07;;;;;;;;;;4928551;28;20073;-91
2023/12/02 00:24:00;;;;;;;30.45;12.77;;;;;;;;;;4951543;28;20571;-91
2023/12/02 00:26:31;;;;;;;31.73;13.68;;;;;;;;;;4918790;28;20030;-90
2023/12/02 00:28:57;;;;;;;40.75;14.07;;;;;;;;;;4926004;28;20042;-90
2023/12/02 00:31:22;;;;;;;36.00;14.63;;;;;;;;;;4929379;28;20079;-91
2023/12/02 00:33:48;;;;;;;33.28;13.82;;;;;;;;;;4944851;28;20110;-91
2023/12/02 00:36:13;;;;;;;31.80;13.63;;;;;;;;;;4959696;28;20618;-89
2023/12/02 00:38:39;;;;;;;30.30;13.65;;;;;;;;;;4947684;28;20039;-90
2023/12/02 00:41:09;;;;;;;41.17;16.20;;;;;;;;;;4946851;28;20512;-91
2023/12/02 00:43:34;;;;;;;37.60;15.13;;;;;;;;;;4952033;28;20098;-91
2023/12/02 00:46:00;;;;;;;38.92;15.63;;;;;;;;;;4941374;28;20035;-91
2023/12/02 00:48:27;;;;;;;36.03;14.25;;;;;;;;;;5003511;28;20037;-91
2023/12/02 00:50:53;;;;;;;;;;;;;;;;;;5012645;28;20033;-91
2023/12/02 00:53:29;;;;;;;35.00;13.90;;;;;;;;;;4991711;28;19909;-91
2023/12/02 00:55:57;;;;;;;57.80;15.85;;;;;;;;;;4983352;28;20105;-90
2023/12/02 00:58:23;;;;;;;38.45;14.57;;;;;;;;;;4998262;28;20071;-91
2023/12/02 01:00:57;;;;;;;37.47;15.20;;;;;;;;;;5015352;28;20038;-90
2023/12/02 01:03:22;;;;;;;50.30;14.85;;;;;;;;;;5008332;28;20052;-88
2023/12/02 01:06:00;;;;;;;36.90;14.45;;;;;;;;;;4995807;28;20115;-89
2023/12/02 01:08:35;;;;;;;37.63;14.57;;;;;;;;;;5018170;28;20406;-90
2023/12/02 01:11:39;;;;;;;41.88;14.88;;;;;;;;;;4981774;28;20804;-91
2023/12/02 01:14:24;;;;;;;34.97;13.98;;;;;;;;;;4978885;28;20048;-91
2023/12/02 01:17:00;;;;;;;35.97;13.27;;;;;;;;;;4986876;28;20128;-91
2023/12/02 01:19:47;;;;;;;;;;;;;;;;;;;;;
2023/12/02 01:22:18;;;;;;;;;;;;;;;;;;5004039;28;21635;-92
2023/12/02 01:24:55;;;;;;;37.25;13.93;;;;;;;;;;4983592;28;20381;-91
2023/12/02 01:27:42;;;;;;;38.10;14.43;;;;;;;;;;4994318;28;20044;-91
2023/12/02 01:30:30;;;;;;;;;;;;;;;;;;;;;
2023/12/02 01:33:31;;;;;;;34.15;14.65;;;;;;;;;;5018288;28;20034;-91
2023/12/02 01:36:25;;;;;;;35.95;14.82;;;;;;;;;;4960155;28;20253;-89
2023/12/02 01:39:22;;;;;;;38.15;14.40;;;;;;;;;;4945273;28;20046;-90
2023/12/02 01:42:08;;;;;;;;;;;;;;;;;;;;;
2023/12/02 01:45:25;;;;;;;29.45;12.45;;;;;;;;;;4986386;28;20528;-91
2023/12/02 01:48:04;;;;;;;32.60;13.07;;;;;;;;;;4946404;28;20029;-91
2023/12/02 01:51:09;;;;;;;;;;;;;;;;;;;;;
2023/12/02 01:54:23;;;;;;;30.65;12.70;;;;;;;;;;4990786;28;20483;-91
2023/12/02 01:57:22;;;;;;;;;;;;;;;;;;;;;
2023/12/02 02:04:07;;;;;;;29.73;12.23;;;;;;;;;;4937352;28;20073;-91
2023/12/02 02:07:26;;;;;;;32.97;13.23;;;;;;;;;;4869839;29;20048;-90
2023/12/02 02:10:33;;;;;;;;;;;;;;;;;;;;;
2023/12/02 02:13:53;;;;;;;;;;;;;;;;;;;;;
2023/12/02 02:17:09;;;;;;;30.45;12.90;;;;;;;;;;4849559;29;20703;-91
2023/12/02 02:19:42;;;;;;;29.05;11.65;;;;;;;;;;4871978;29;20044;-90
2023/12/02 02:25:50;;;;;;;30.92;11.68;;;;;;;;;;4888916;29;20303;-90
2023/12/02 02:28:36;;;;;;;30.77;12.40;;;;;;;;;;4809858;29;20474;-90
2023/12/02 02:31:30;;;;;;;;;;;;;;;;;;;;;
2023/12/02 02:33:58;;;;;;;33.42;13.13;;;;;;;;;;4951049;28;20902;-91
2023/12/02 02:36:23;;;;;;;32.30;13.00;;;;;;;;;;4959736;28;20076;-91
2023/12/02 02:38:49;;;;;;;43.22;13.30;;;;;;;;;;4995515;28;20045;-91
2023/12/02 02:41:14;;;;;;;31.88;13.13;;;;;;;;;;5029031;28;20071;-91
2023/12/02 02:43:40;;;;;;;45.10;15.30;;;;;;;;;;5023648;28;20042;-90
2023/12/02 02:46:07;;;;;;;35.45;15.00;;;;;;;;;;5029558;28;20030;-91
2023/12/02 02:48:32;;;;;;;35.72;13.68;;;;;;;;;;5014395;28;20072;-88
2023/12/02 02:50:59;;;;;;;35.50;14.25;;;;;;;;;;5006801;28;20034;-91
2023/12/02 02:53:24;;;;;;;34.30;14.32;;;;;;;;;;5004895;28;20033;-92
2023/12/02 02:55:50;;;;;;;35.00;13.77;;;;;;;;;;5003045;28;20492;-91
2023/12/02 02:58:15;;;;;;;35.10;14.30;;;;;;;;;;5026679;28;20041;-91
2023/12/02 03:00:41;;;;;;;32.55;12.73;;;;;;;;;;5026040;28;20040;-91
2023/12/02 03:03:06;;;;;;;32.80;13.35;;;;;;;;;;5021940;28;20362;-91
2023/12/02 03:05:31;;;;;;;34.47;13.70;;;;;;;;;;5033369;28;20049;-92
2023/12/02 03:08:00;;;;;;;31.67;12.95;;;;;;;;;;5029432;28;20482;-90
2023/12/02 03:10:25;;;;;;;32.70;13.48;;;;;;;;;;5017805;28;20044;-91
2023/12/02 03:12:51;;;;;;;34.90;13.82;;;;;;;;;;5037249;28;20036;-91
2023/12/02 03:15:16;;;;;;;35.40;14.98;;;;;;;;;;5037554;28;20046;-92
2023/12/02 03:17:41;;;;;;;34.42;13.45;;;;;;;;;;5026404;28;20432;-90
2023/12/02 03:20:07;;;;;;;35.40;14.13;;;;;;;;;;5022134;28;20070;-90
2023/12/02 03:22:33;;;;;;;35.10;12.85;;;;;;;;;;5019658;28;20044;-89
2023/12/02 03:24:58;;;;;;;29.85;13.35;;;;;;;;;;5041390;28;20033;-91
2023/12/02 03:27:23;;;;;;;30.10;12.35;;;;;;;;;;5021394;28;20037;-91
2023/12/02 03:29:49;;;;;;;27.98;11.93;;;;;;;;;;5028516;28;20448;-91
2023/12/02 03:32:14;;;;;;;26.02;11.45;;;;;;;;;;5025380;28;20037;-90
2023/12/02 03:34:40;;;;;;;27.70;12.23;;;;;;;;;;5025436;28;20033;-89
2023/12/02 03:37:06;;;;;;;28.58;12.00;;;;;;;;;;5040791;28;20499;-90
2023/12/02 03:39:31;;;;;;;28.02;11.90;;;;;;;;;;5032993;28;20078;-92
2023/12/02 03:41:57;;;;;;;27.73;11.77;;;;;;;;;;5021946;28;20136;-91
2023/12/02 03:44:22;;;;;;;27.67;12.27;;;;;;;;;;5001741;28;20042;-92
2023/12/02 03:46:48;;;;;;;30.70;11.63;;;;;;;;;;5006393;28;20049;-90
2023/12/02 03:49:13;;;;;;;26.17;11.50;;;;;;;;;;5004004;28;20475;-90
2023/12/02 03:51:39;;;;;;;31.05;12.40;;;;;;;;;;5020398;28;20041;-91
2023/12/02 03:54:04;;;;;;;24.88;10.65;;;;;;;;;;5021981;28;20411;-91
2023/12/02 03:56:30;;;;;;;22.52;9.63;;;;;;;;;;5037190;28;20034;-88
2023/12/02 03:58:55;;;;;;;22.52;10.15;;;;;;;;;;5020888;28;20045;-92
2023/12/02 04:01:22;;;;;;;26.45;10.50;;;;;;;;;;5011715;28;20490;-92
2023/12/02 04:03:47;;;;;;;24.83;9.55;;;;;;;;;;5025268;28;20045;-92
2023/12/02 04:06:13;;;;;;;22.17;9.73;;;;;;;;;;5020269;28;20040;-92
2023/12/02 04:08:39;;;;;;;21.50;9.18;;;;;;;;;;5019572;28;20140;-92
2023/12/02 04:11:05;;;;;;;23.58;9.90;;;;;;;;;;5015561;28;20055;-92
2023/12/02 04:13:31;;;;;;;22.33;8.93;;;;;;;;;;5028669;28;20037;-91
2023/12/02 04:15:56;;;;;;;20.60;8.23;;;;;;;;;;5032150;28;20028;-92
2023/12/02 04:18:22;;;;;;;19.17;8.32;;;;;;;;;;5020541;28;24725;-91
2023/12/02 04:20:47;;;;;;;19.42;8.27;;;;;;;;;;4998286;28;20042;-90
2023/12/02 04:23:14;;;;;;;19.55;7.80;;;;;;;;;;5033625;28;20041;-90
2023/12/02 04:25:39;;;;;;;18.70;7.77;;;;;;;;;;5023731;28;20042;-91
2023/12/02 04:32:34;;;;;;;;;;;;;;;;;;;;;
2023/12/02 04:35:08;;;;;;;34.60;7.60;;;;;;;;;;4983560;28;20372;-91
2023/12/02 04:41:35;;;;;;;;;;;;;;;;;;;;;
2023/12/02 04:44:41;;;;;;;18.75;7.57;;;;;;;;;;5003235;28;20046;-92
2023/12/02 04:47:16;;;;;;;18.55;7.47;;;;;;;;;;4973909;28;20043;-91
2023/12/02 04:49:54;;;;;;;15.80;7.43;;;;;;;;;;4969902;28;20175;-93
2023/12/02 04:52:25;;;;;;;17.15;6.80;;;;;;;;;;4995013;28;20037;-92
2023/12/02 04:55:10;;;;;;;18.65;7.68;;;;;;;;;;4989408;28;20621;-91
2023/12/02 04:58:23;;;;;;;17.20;7.45;;;;;;;;;;4967226;28;20037;-90
2023/12/02 05:01:20;;;;;;;17.88;6.93;;;;;;;;;;5012058;28;20049;-90
2023/12/02 05:18:22;;;;;;;19.02;7.85;;;;;;;;;;5019053;28;20060;-91
2023/12/02 05:21:18;;;;;;;21.00;6.82;;;;;;;;;;4942379;28;20057;-91
2023/12/02 05:24:15;;;;;;;17.90;7.03;;;;;;;;;;4975740;28;20048;-94
2023/12/02 05:27:07;;;;;;;14.77;6.32;;;;;;;;;;4986905;28;20037;-90
2023/12/02 05:30:22;;;;;;;;;;;;;;;;;;;;;
2023/12/02 05:32:56;;;;;;;13.88;6.07;;;;;;;;;;4931550;28;21607;-91
2023/12/02 05:35:47;;;;;;;18.45;6.25;;;;;;;;;;5027843;28;20037;-91
2023/12/02 05:38:24;;;;;;;21.17;6.43;;;;;;;;;;4994798;28;20041;-91
2023/12/02 05:41:20;;;;;;;14.68;6.20;;;;;;;;;;4981869;28;20033;-90
2023/12/02 05:44:28;;;;;;;;;;;;;;;;;;;;;
2023/12/02 06:00:40;;;;;;;11.75;5.47;;;;;;;;;;4879718;29;20036;-89
2023/12/02 06:03:57;;;;;;;;;;;;;;;;;;;;;
2023/12/02 06:07:18;;;;;;;10.20;4.55;;;;;;;;;;4829497;29;21541;-90
2023/12/02 06:14:12;;;;;;;;;;;;;;;;;;;;;
2023/12/02 06:17:35;;;;;;;;;;;;;;;;;;;;;
2023/12/02 06:20:50;;;;;;;12.57;4.85;;;;;;;;;;4855661;29;20840;-89
2023/12/02 06:23:41;;;;;;;10.98;5.18;;;;;;;;;;4842152;29;20409;-89
2023/12/02 06:29:32;;;;;;;;;;;;;;;;;;;;;
2023/12/02 06:32:15;;;;;;;11.55;5.35;;;;;;;;;;4959639;28;20646;-91
2023/12/02 06:35:13;;;;;;;;;;;;;;;;;;;;;
2023/12/02 06:38:25;;;;;;;14.23;5.45;;;;;;;;;;5007282;28;20615;-91
2023/12/02 06:41:03;;;;;;;14.80;5.32;;;;;;;;;;4984795;28;20121;-91
2023/12/02 06:44:04;;;;;;;13.90;5.35;;;;;;;;;;4970223;28;20103;-91
2023/12/02 06:46:34;;;;;;;12.15;5.40;;;;;;;;;;4986392;28;20148;-91
2023/12/02 06:49:00;;;;;;;11.57;4.95;;;;;;;;;;5024445;28;20037;-92
2023/12/02 06:51:28;;;;;;;11.35;5.13;;;;;;;;;;5009086;28;20037;-92
2023/12/02 06:53:54;;;;;;;13.48;5.72;;;;;;;;;;5030088;28;20095;-92
2023/12/02 06:56:21;;;;;;;13.37;5.97;;;;;;;;;;5004776;28;20828;-91
2023/12/02 06:58:49;;;;;;;13.20;5.72;;;;;;;;;;5037935;28;20040;-92
2023/12/02 07:04:37;;;;;;;13.35;5.75;;;;;;;;;;4968860;28;20565;-79
2023/12/02 07:07:03;;;;;;;11.25;4.75;;;;;;;;;;4967724;28;20034;-79
2023/12/02 07:09:28;;;;;;;12.63;5.82;;;;;;;;;;4977566;28;20042;-79
2023/12/02 07:11:54;;;;;;;13.13;5.82;;;;;;;;;;4957393;28;20180;-79
2023/12/02 07:14:19;;;;;;;12.43;5.85;;;;;;;;;;4967368;28;20046;-79
2023/12/02 07:16:45;;;;;;;11.48;5.18;;;;;;;;;;4970557;28;20052;-79
2023/12/02 07:19:10;;;;;;;14.90;5.60;;;;;;;;;;4987030;28;20512;-80
2023/12/02 07:52:22;;;;;;;14.73;6.35;;;;;;;;;;4984233;28;20042;-92
2023/12/02 07:54:47;;;;;;;13.25;5.97;;;;;;;;;;4956753;28;20070;-87
2023/12/02 07:57:12;;;;;;;15.85;6.90;;;;;;;;;;4945030;28;20121;-89
2023/12/02 07:59:38;;;;;;;16.45;6.70;;;;;;;;;;4967902;28;20042;-89
2023/12/02 08:02:03;;;;;;;17.02;6.68;;;;;;;;;;4952182;28;20504;-83
2023/12/02 08:04:29;;;;;;;17.00;6.85;;;;;;;;;;4952941;28;20491;-83
2023/12/02 08:06:54;;;;;;;17.33;6.97;;;;;;;;;;4966329;28;20130;-84
2023/12/02 08:09:19;;;;;;;19.02;8.02;;;;;;;;;;4988010;28;20360;-85
2023/12/02 08:11:45;;;;;;;17.90;7.30;;;;;;;;;;4988381;28;20188;-85
2023/12/02 08:14:10;;;;;;;19.25;7.47;;;;;;;;;;4954970;28;20100;-86
2023/12/02 08:16:36;;;;;;;18.27;7.68;;;;;;;;;;4987430;28;20042;-86
2023/12/02 08:19:01;;;;;;;23.92;8.70;;;;;;;;;;4967851;28;20054;-83
2023/12/02 08:21:27;;;;;;;22.05;7.70;;;;;;;;;;4965719;28;20971;-82
2023/12/02 08:23:52;;;;;;;19.08;7.60;;;;;;;;;;4958358;28;20041;-84
2023/12/02 08:26:17;;;;;;;20.52;8.15;;;;;;;;;;4955724;28;20034;-87
2023/12/02 08:28:46;;;;;;;22.58;8.88;;;;;;;;;;4972290;28;20042;-88
2023/12/02 08:31:12;;;;;;;21.40;8.18;;;;;;;;;;4972342;28;20040;-86
2023/12/02 08:33:37;;;;;;;24.42;8.95;;;;;;;;;;4951029;28;20113;-88
2023/12/02 08:36:04;;;;;;;21.83;8.18;;;;;;;;;;5005768;28;20038;-86
2023/12/02 08:38:30;;;;;;;22.50;8.48;;;;;;;;;;4973017;28;20439;-87
2023/12/02 08:40:55;;;;;;;20.27;7.28;;;;;;;;;;4987381;28;20035;-85
2023/12/02 08:43:21;;;;;;;23.67;8.57;;;;;;;;;;4970908;28;20046;-86
2023/12/02 08:45:46;;;;;;;20.48;7.63;;;;;;;;;;4975450;28;20030;-85
2023/12/02 08:48:11;;;;;;;24.30;9.10;;;;;;;;;;4974523;28;20040;-86
2023/12/02 08:50:37;;;;;;;21.67;8.52;;;;;;;;;;4974328;28;20112;-86
2023/12/02 08:53:03;;;;;;;22.02;7.88;;;;;;;;;;4977975;28;20034;-85
2023/12/02 08:55:28;;;;;;;21.30;7.82;;;;;;;;;;4979640;28;20069;-84
2023/12/02 08:57:53;;;;;;;22.95;8.10;;;;;;;;;;4975382;28;20053;-85
2023/12/02 09:00:19;;;;;;;21.08;8.20;;;;;;;;;;4991218;28;20042;-85
2023/12/02 09:02:44;;;;;;;19.92;7.38;;;;;;;;;;4987136;28;20372;-85
2023/12/02 09:05:30;;;;;;;19.98;6.85;;;;;;;;;;4986516;28;20053;-85
2023/12/02 09:07:56;;;;;;;18.55;6.75;;;;;;;;;;4927543;29;20152;-85
2023/12/02 09:10:23;;;;;;;19.60;8.23;;;;;;;;;;4898312;29;20051;-84
2023/12/02 09:12:48;;;;;;;17.45;6.88;;;;;;;;;;4912127;29;20048;-84
2023/12/02 09:15:19;;;;;;;18.77;7.72;;;;;;;;;;4895245;29;20035;-85
2023/12/02 09:18:00;;;;;;;20.35;7.35;;;;;;;;;;4926243;29;20046;-85
2023/12/02 09:20:43;;;;;;;20.20;7.90;;;;;;;;;;4925979;29;20351;-85
2023/12/02 09:23:09;;;;;;;17.02;7.18;;;;;;;;;;4911752;29;20035;-85
2023/12/02 09:25:37;;;;;;;17.85;7.88;;;;;;;;;;4911389;29;20036;-85
2023/12/02 09:28:05;;;;;;;18.63;8.18;;;;;;;;;;4912052;29;20406;-85
2023/12/02 09:30:37;;;;;;;19.75;7.85;;;;;;;;;;4915198;29;20584;-86
2023/12/02 09:33:06;;;;;;;17.75;7.82;;;;;;;;;;4895692;29;20531;-85
2023/12/02 09:35:33;;;;;;;22.90;8.75;;;;;;;;;;4926657;29;20170;-85
2023/12/02 09:38:00;;;;;;;20.77;8.70;;;;;;;;;;4912748;29;20044;-86
2023/12/02 09:41:00;;;;;;;21.70;8.00;;;;;;;;;;4911842;29;20043;-85
2023/12/02 09:43:30;;;;;;;22.27;8.25;;;;;;;;;;4895574;29;20087;-85
2023/12/02 09:46:08;;;;;;;25.17;8.35;;;;;;;;;;4984173;28;20041;-86
2023/12/02 09:48:35;;;;;;;23.75;8.52;;;;;;;;;;4988837;28;20031;-85
2023/12/02 09:51:23;;;;;;;21.88;8.73;;;;;;;;;;4963318;28;20043;-86
2023/12/02 09:54:07;;;;;;;24.42;8.27;;;;;;;;;;4963241;28;20070;-86
2023/12/02 09:56:44;;;;;;;21.70;8.88;;;;;;;;;;4952445;28;20043;-86
2023/12/02 09:59:19;;;;;;;23.88;8.68;;;;;;;;;;4967968;28;20043;-86
2023/12/02 10:02:06;;;;;;;21.45;8.63;;;;;;;;;;4969109;28;20050;-86
2023/12/02 10:04:43;;;;;;;23.10;8.63;;;;;;;;;;4951308;28;20043;-85
2023/12/02 10:07:28;;;;;;;23.60;9.20;;;;;;;;;;4965230;28;20572;-85
2023/12/02 10:10:13;;;;;;;26.55;10.40;;;;;;;;;;4949645;28;20485;-87
2023/12/02 10:12:59;;;;;;;24.95;9.85;;;;;;;;;;4942659;28;20042;-85
2023/12/02 10:15:28;;;;;;;28.83;10.10;;;;;;;;;;4936018;28;20042;-86
2023/12/02 10:18:01;;;;;;;25.85;9.57;;;;;;;;;;4965403;28;20035;-85
2023/12/02 10:20:28;;;;;;;23.58;9.70;;;;;;;;;;4965248;28;20574;-86
2023/12/02 10:23:25;;;;;;;22.37;8.83;;;;;;;;;;4952237;28;20044;-86
2023/12/02 10:26:12;;;;;;;20.42;8.38;;;;;;;;;;4965299;28;20262;-86
2023/12/02 10:28:44;;;;;;;25.13;10.02;;;;;;;;;;4949963;28;20035;-86
2023/12/02 10:31:14;;;;;;;22.92;10.10;;;;;;;;;;4945088;28;20047;-85
2023/12/02 10:33:53;;;;;;;23.30;9.55;;;;;;;;;;4963478;28;20043;-85
2023/12/02 10:36:20;;;;;;;29.77;10.73;;;;;;;;;;4964686;28;20039;-85
2023/12/02 10:39:13;;;;;;;27.23;10.60;;;;;;;;;;4942583;28;20035;-86
2023/12/02 10:41:57;;;;;;;20.27;8.93;;;;;;;;;;4948065;28;20047;-85
2023/12/02 10:44:24;;;;;;;23.15;9.43;;;;;;;;;;4968616;28;20489;-86
2023/12/02 10:46:49;;;;;;;20.40;8.90;;;;;;;;;;4950148;28;20045;-86
2023/12/02 10:49:18;;;;;;;18.58;8.32;;;;;;;;;;4950194;28;20461;-86
2023/12/02 10:51:45;;;;;;;21.17;8.70;;;;;;;;;;4963041;28;20068;-85
2023/12/02 10:54:13;;;;;;;17.20;7.60;;;;;;;;;;4968142;28;20074;-85
2023/12/02 10:56:39;;;;;;;19.33;8.73;;;;;;;;;;4969110;28;20122;-85
2023/12/02 10:59:05;;;;;;;21.13;9.23;;;;;;;;;;4968304;28;20038;-85
2023/12/02 11:01:37;;;;;;;18.30;8.75;;;;;;;;;;4968468;28;20129;-85
2023/12/02 11:04:18;;;;;;;19.05;8.38;;;;;;;;;;4964079;28;20042;-85
2023/12/02 11:06:54;;;;;;;21.83;8.43;;;;;;;;;;4984182;28;20042;-85
2023/12/02 11:09:31;;;;;;;20.75;8.55;;;;;;;;;;4984614;28;20149;-86
2023/12/02 11:12:11;;;;;;;20.05;8.50;;;;;;;;;;4986038;28;20042;-86
2023/12/02 11:14:41;;;;;;;18.05;7.65;;;;;;;;;;4983527;28;20130;-85
2023/12/02 11:17:36;;;;;;;20.55;8.95;;;;;;;;;;4969602;28;20034;-86
2023/12/02 11:20:22;;;;;;;18.40;7.45;;;;;;;;;;4962499;28;20515;-85
2023/12/02 11:23:05;;;;;;;20.80;7.30;;;;;;;;;;4952025;28;20154;-86
2023/12/02 11:25:58;;;;;;;16.48;6.90;;;;;;;;;;4973276;28;20515;-86
2023/12/02 11:28:37;;;;;;;17.52;6.97;;;;;;;;;;5000886;28;20034;-86
2023/12/02 11:31:29;;;;;;;18.92;7.43;;;;;;;;;;4968810;28;20486;-85
2023/12/02 11:34:07;;;;;;;17.55;7.80;;;;;;;;;;5001424;28;20470;-84
2023/12/02 11:36:53;;;;;;;14.90;6.82;;;;;;;;;;4985402;28;20042;-85
2023/12/02 11:39:56;;;;;;;17.67;7.10;;;;;;;;;;4971450;28;20108;-86
2023/12/02 11:42:25;;;;;;;19.83;8.10;;;;;;;;;;4985227;28;20112;-86
2023/12/02 11:45:02;;;;;;;20.65;8.68;;;;;;;;;;4977239;28;20034;-86
2023/12/02 11:47:39;;;;;;;;;;;;;;;;;;5004924;28;20526;-86
2023/12/02 11:50:14;;;;;;;21.73;7.93;;;;;;;;;;4990834;28;19917;-85
2023/12/02 11:52:45;;;;;;;17.65;7.32;;;;;;;;;;5007410;28;20044;-87
2023/12/02 11:55:27;;;;;;;20.40;7.57;;;;;;;;;;5008056;28;20683;-85
2023/12/02 11:58:14;;;;;;;20.90;7.93;;;;;;;;;;4991148;28;20507;-86
2023/12/02 12:00:39;;;;;;;;;;;;;;;;;;4991762;28;20503;-86
2023/12/02 12:03:26;;;;;;;17.77;7.72;;;;;;;;;;4991503;28;19917;-86
2023/12/02 12:06:36;;;;;;;19.90;8.32;;;;;;;;;;5006969;28;20373;-86
2023/12/02 12:09:29;;;;;;;19.63;7.75;;;;;;;;;;4974288;28;20126;-86
2023/12/02 12:11:56;;;;;;;21.95;9.05;;;;;;;;;;4990930;28;20033;-86
2023/12/02 12:14:24;;;;;;;25.55;9.32;;;;;;;;;;4975521;28;20038;-86
2023/12/02 12:16:50;;;;;;;19.83;9.35;;;;;;;;;;4975341;28;20973;-86
2023/12/02 12:19:15;;;;;;;19.08;9.70;;;;;;;;;;4980153;28;20141;-86
2023/12/02 12:21:42;;;;;;;22.08;9.55;;;;;;;;;;4990417;28;20034;-87
2023/12/02 12:24:08;;;;;;;22.88;8.98;;;;;;;;;;4975612;28;20517;-86
2023/12/02 12:26:33;;;;;;;21.40;8.85;;;;;;;;;;4976087;28;20077;-88
2023/12/02 12:28:58;;;;;;;23.20;9.80;;;;;;;;;;4991547;28;20030;-86
2023/12/02 12:31:28;;;;;;;24.02;9.45;;;;;;;;;;4974799;28;20038;-86
2023/12/02 12:33:55;;;;;;;23.30;9.85;;;;;;;;;;4975193;28;20049;-86
2023/12/02 12:36:30;;;;;;;22.25;9.93;;;;;;;;;;4974336;28;20149;-88
2023/12/02 12:38:59;;;;;;;21.60;10.02;;;;;;;;;;4968965;28;20503;-85
2023/12/02 12:41:25;;;;;;;21.35;9.65;;;;;;;;;;4980413;28;20098;-87
2023/12/02 12:43:53;;;;;;;22.00;10.00;;;;;;;;;;4976738;28;20034;-86
2023/12/02 12:46:19;;;;;;;20.10;9.73;;;;;;;;;;4978891;28;20511;-86
2023/12/02 12:48:51;;;;;;;24.58;10.65;;;;;;;;;;4991023;28;20057;-85
2023/12/02 12:51:21;;;;;;;20.02;9.65;;;;;;;;;;4989716;28;20825;-85
2023/12/02 12:54:00;;;;;;;22.15;10.75;;;;;;;;;;4989417;28;20444;-86
2023/12/02 12:56:40;;;;;;;22.58;11.10;;;;;;;;;;4980371;28;20054;-87
2023/12/02 12:59:16;;;;;;;20.27;10.57;;;;;;;;;;5010030;28;20041;-86
2023/12/02 13:02:19;;;;;;;20.70;10.25;;;;;;;;;;4992499;28;20041;-86
2023/12/02 13:04:47;;;;;;;20.90;10.52;;;;;;;;;;4991531;28;20149;-86
2023/12/02 13:07:15;;;;;;;23.98;11.02;;;;;;;;;;5006749;28;20160;-85
2023/12/02 13:09:49;;;;;;;27.20;11.55;;;;;;;;;;4965262;28;20034;-85
2023/12/02 13:12:22;;;;;;;21.77;10.98;;;;;;;;;;4986054;28;20116;-85
2023/12/02 13:14:52;;;;;;;22.27;10.25;;;;;;;;;;4991516;28;20510;-88
2023/12/02 13:17:18;;;;;;;21.02;10.50;;;;;;;;;;4982028;28;20422;-87
2023/12/02 13:19:45;;;;;;;22.38;11.20;;;;;;;;;;4973999;28;20088;-87
2023/12/02 13:22:16;;;;;;;22.97;10.97;;;;;;;;;;4989776;28;20044;-88
2023/12/02 13:24:52;;;;;;;24.45;11.57;;;;;;;;;;4974149;28;20874;-87
2023/12/02 13:27:39;;;;;;;23.15;11.50;;;;;;;;;;4974143;28;20030;-87
2023/12/02 13:30:05;;;;;;;;;;;;;;;;;;4975737;28;20034;-85
2023/12/02 13:32:35;;;;;;;21.27;10.77;;;;;;;;;;4974179;28;19921;-86
2023/12/02 13:35:05;;;;;;;22.85;10.77;;;;;;;;;;4990163;28;20044;-86
2023/12/02 13:37:44;;;;;;;21.80;10.65;;;;;;;;;;4989807;28;20037;-86
2023/12/02 13:40:11;;;;;;;22.45;10.82;;;;;;;;;;4976634;28;20038;-86
2023/12/02 13:42:38;;;;;;;20.55;10.95;;;;;;;;;;4971540;28;20049;-86
2023/12/02 13:45:07;;;;;;;18.88;10.00;;;;;;;;;;4990861;28;20038;-87
2023/12/02 13:47:52;;;;;;;20.88;10.55;;;;;;;;;;4989168;28;20038;-86
2023/12/02 13:50:18;;;;;;;20.83;10.52;;;;;;;;;;4989375;28;20038;-87
2023/12/02 13:52:53;;;;;;;22.83;11.53;;;;;;;;;;4958271;28;20038;-87
2023/12/02 13:55:25;;;;;;;21.70;10.30;;;;;;;;;;4960880;28;20137;-86
2023/12/02 13:58:00;;;;;;;23.30;11.25;;;;;;;;;;4974045;28;20038;-86
2023/12/02 14:00:53;;;;;;;23.35;10.95;;;;;;;;;;4986450;28;20038;-87
2023/12/02 14:03:40;;;;;;;23.00;11.30;;;;;;;;;;4988716;28;20037;-88
2023/12/02 14:06:16;;;;;;;17.13;8.85;;;;;;;;;;4978825;28;20037;-87
2023/12/02 14:08:42;;;;;;;24.10;12.40;;;;;;;;;;4973742;28;20456;-87
2023/12/02 14:11:13;;;;;;;23.17;11.00;;;;;;;;;;4971681;28;20530;-86
2023/12/02 14:14:09;;;;;;;19.92;11.23;;;;;;;;;;4973678;28;20033;-86
2023/12/02 14:16:55;;;;;;;26.77;12.18;;;;;;;;;;4990740;28;20046;-86
2023/12/02 14:19:21;;;;;;;23.52;11.80;;;;;;;;;;4982052;28;20054;-86
2023/12/02 14:22:05;;;;;;;24.65;11.68;;;;;;;;;;4990044;28;20049;-85
2023/12/02 14:24:48;;;;;;;24.17;11.18;;;;;;;;;;4993093;28;20396;-87
2023/12/02 14:27:36;;;;;;;24.40;11.52;;;;;;;;;;4988922;28;20072;-86
2023/12/02 14:30:07;;;;;;;23.05;11.45;;;;;;;;;;4975061;28;20125;-86
2023/12/02 14:33:06;;;;;;;23.63;11.82;;;;;;;;;;5003728;28;20042;-86
2023/12/02 14:35:54;;;;;;;24.88;11.63;;;;;;;;;;4973227;28;20037;-86
2023/12/02 14:38:20;;;;;;;23.48;11.50;;;;;;;;;;4971162;28;20045;-87
2023/12/02 14:41:05;;;;;;;25.77;11.68;;;;;;;;;;4988829;28;20038;-86
2023/12/02 14:43:39;;;;;;;22.55;11.65;;;;;;;;;;4972475;28;20065;-86
2023/12/02 14:46:05;;;;;;;24.45;12.57;;;;;;;;;;5006228;28;20438;-84
2023/12/02 14:48:31;;;;;;;24.17;12.40;;;;;;;;;;4989025;28;20091;-86
2023/12/02 14:51:01;;;;;;;27.63;13.40;;;;;;;;;;4971102;28;20042;-85
2023/12/02 14:53:34;;;;;;;23.08;12.35;;;;;;;;;;4950328;28;20449;-86
2023/12/02 14:55:59;;;;;;;22.55;11.38;;;;;;;;;;4964275;28;20035;-85
2023/12/02 14:58:29;;;;;;;25.48;12.40;;;;;;;;;;4965638;28;20097;-86
2023/12/02 15:00:57;;;;;;;26.50;12.98;;;;;;;;;;4948667;28;20389;-85
2023/12/02 15:03:29;;;;;;;22.83;11.57;;;;;;;;;;4964288;28;20031;-85
2023/12/02 15:05:59;;;;;;;25.10;11.93;;;;;;;;;;4948877;28;20055;-85
2023/12/02 15:08:25;;;;;;;24.60;11.43;;;;;;;;;;4949702;28;20050;-85
2023/12/02 15:10:51;;;;;;;22.75;11.55;;;;;;;;;;4951278;28;20035;-85
2023/12/02 15:13:21;;;;;;;22.58;11.38;;;;;;;;;;4956917;28;20239;-85
2023/12/02 15:15:47;;;;;;;22.55;11.85;;;;;;;;;;4952156;28;20109;-85
2023/12/02 15:18:19;;;;;;;26.52;12.13;;;;;;;;;;4965745;28;20141;-85
2023/12/02 15:20:49;;;;;;;21.30;11.48;;;;;;;;;;4970596;28;20039;-86
2023/12/02 15:23:17;;;;;;;22.25;11.65;;;;;;;;;;4953749;28;20035;-85
2023/12/02 15:25:49;;;;;;;22.25;11.30;;;;;;;;;;4960804;28;20070;-84
2023/12/02 15:28:18;;;;;;;24.30;11.32;;;;;;;;;;4969249;28;20027;-84
2023/12/02 15:30:46;;;;;;;22.63;11.18;;;;;;;;;;4953185;28;20038;-84
2023/12/02 15:33:15;;;;;;;21.02;10.77;;;;;;;;;;4955546;28;20026;-85
2023/12/02 15:35:43;;;;;;;21.35;11.25;;;;;;;;;;4970923;28;20145;-85
2023/12/02 15:38:09;;;;;;;19.40;10.27;;;;;;;;;;4956421;28;20058;-85
2023/12/02 15:40:34;;;;;;;19.05;9.52;;;;;;;;;;4968493;28;20568;-85
2023/12/02 15:42:59;;;;;;;21.73;10.98;;;;;;;;;;4956790;28;20049;-85
2023/12/02 15:45:25;;;;;;;21.88;11.00;;;;;;;;;;4953905;28;20093;-84
2023/12/02 15:47:50;;;;;;;23.25;11.40;;;;;;;;;;4968484;28;20034;-84
2023/12/02 15:50:16;;;;;;;23.52;11.13;;;;;;;;;;4958399;28;20049;-85
2023/12/02 15:52:41;;;;;;;21.73;10.85;;;;;;;;;;4974060;28;20030;-84
2023/12/02 15:55:07;;;;;;;20.73;10.73;;;;;;;;;;4991798;28;20732;-84
2023/12/02 15:57:33;;;;;;;21.42;10.63;;;;;;;;;;4975606;28;20065;-84
2023/12/02 15:59:58;;;;;;;19.65;9.80;;;;;;;;;;4975936;28;20146;-85
2023/12/02 16:02:24;;;;;;;20.55;10.25;;;;;;;;;;4975467;28;20373;-86
2023/12/02 16:04:51;;;;;;;18.95;10.20;;;;;;;;;;4975740;28;20075;-84
2023/12/02 16:07:18;;;;;;;21.30;10.43;;;;;;;;;;4979025;28;20561;-85
2023/12/02 16:09:47;;;;;;;20.02;10.95;;;;;;;;;;4974740;28;20052;-85
2023/12/02 16:12:19;;;;;;;18.00;9.60;;;;;;;;;;4982392;28;20034;-85
2023/12/02 16:14:48;;;;;;;16.88;9.73;;;;;;;;;;4990845;28;20033;-85
2023/12/02 16:17:16;;;;;;;21.63;10.25;;;;;;;;;;4989980;28;20037;-85
2023/12/02 16:19:42;;;;;;;18.35;10.18;;;;;;;;;;4990819;28;20041;-86
2023/12/02 16:22:08;;;;;;;19.73;10.70;;;;;;;;;;4973794;28;20042;-85
2023/12/02 16:24:33;;;;;;;18.67;9.73;;;;;;;;;;4975500;28;20449;-87
2023/12/02 16:26:59;;;;;;;20.83;11.23;;;;;;;;;;4975023;28;20038;-85
2023/12/02 16:29:25;;;;;;;18.63;10.15;;;;;;;;;;4974274;28;20042;-85
2023/12/02 16:31:51;;;;;;;18.60;9.60;;;;;;;;;;4973850;28;20515;-85
2023/12/02 16:34:20;;;;;;;19.83;10.40;;;;;;;;;;4978778;28;20038;-86
2023/12/02 16:36:48;;;;;;;18.67;10.18;;;;;;;;;;4987815;28;20037;-86
2023/12/02 16:39:14;;;;;;;18.67;9.82;;;;;;;;;;4973795;28;20116;-86
2023/12/02 16:41:41;;;;;;;18.33;9.57;;;;;;;;;;4974878;28;20503;-86
2023/12/02 16:44:07;;;;;;;20.48;10.60;;;;;;;;;;4972965;28;20038;-85
2023/12/02 16:46:35;;;;;;;19.20;10.63;;;;;;;;;;4976243;28;20045;-85
2023/12/02 16:49:02;;;;;;;23.33;11.30;;;;;;;;;;5006864;28;20041;-85
2023/12/02 16:51:27;;;;;;;21.53;10.83;;;;;;;;;;4990365;28;20396;-85
2023/12/02 16:53:54;;;;;;;20.08;10.93;;;;;;;;;;4972930;28;20044;-86
2023/12/02 16:56:28;;;;;;;22.23;11.38;;;;;;;;;;4967719;28;20662;-85